sensor_id;sensor_type;location;lat;lon;timestamp;temperature;humidity
69823;SHT31;57119;52.516;13.508;2023-02-01T00:01:08;4.53;93.61
69823;SHT31;57119;52.516;13.508;2023-02-01T00:03:33;4.62;93.17
69823;SHT31;57119;52.516;13.508;2023-02-01T00:05:59;4.66;93.28
69823;SHT31;57119;52.516;13.508;2023-02-01T00:08:25;4.69;93.52
69823;SHT31;57119;52.516;13.508;2023-02-01T00:11:01;4.46;95.47
69823;SHT31;57119;52.516;13.508;2023-02-01T00:13:28;4.35;95.52
69823;SHT31;57119;52.516;13.508;2023-02-01T00:15:54;4.26;95.73
69823;SHT31;57119;52.516;13.508;2023-02-01T00:18:20;4.16;96.10
69823;SHT31;57119;52.516;13.508;2023-02-01T00:20:46;4.12;95.86
69823;SHT31;57119;52.516;13.508;2023-02-01T00:23:12;4.16;95.99
69823;SHT31;57119;52.516;13.508;2023-02-01T00:25:37;4.22;95.43
69823;SHT31;57119;52.516;13.508;2023-02-01T00:28:02;4.21;95.16
69823;SHT31;57119;52.516;13.508;2023-02-01T00:30:28;4.18;94.83
69823;SHT31;57119;52.516;13.508;2023-02-01T00:32:53;4.22;94.28
69823;SHT31;57119;52.516;13.508;2023-02-01T00:35:18;4.21;94.53
69823;SHT31;57119;52.516;13.508;2023-02-01T00:37:44;4.18;94.63
69823;SHT31;57119;52.516;13.508;2023-02-01T00:40:09;4.22;93.76
69823;SHT31;57119;52.516;13.508;2023-02-01T00:42:35;4.21;93.62
69823;SHT31;57119;52.516;13.508;2023-02-01T00:45:00;4.21;93.53
69823;SHT31;57119;52.516;13.508;2023-02-01T00:47:25;4.21;93.18
69823;SHT31;57119;52.516;13.508;2023-02-01T00:49:51;4.19;93.69
69823;SHT31;57119;52.516;13.508;2023-02-01T00:52:17;4.21;93.31
69823;SHT31;57119;52.516;13.508;2023-02-01T00:54:42;4.24;93.15
69823;SHT31;57119;52.516;13.508;2023-02-01T00:57:07;4.25;93.13
69823;SHT31;57119;52.516;13.508;2023-02-01T00:59:33;4.25;93.42
69823;SHT31;57119;52.516;13.508;2023-02-01T01:01:58;4.39;92.74
69823;SHT31;57119;52.516;13.508;2023-02-01T01:04:23;4.35;93.66
69823;SHT31;57119;52.516;13.508;2023-02-01T01:06:49;4.38;93.17
69823;SHT31;57119;52.516;13.508;2023-02-01T01:09:14;4.31;93.31
69823;SHT31;57119;52.516;13.508;2023-02-01T01:11:39;4.24;93.67
69823;SHT31;57119;52.516;13.508;2023-02-01T01:14:07;4.15;93.98
69823;SHT31;57119;52.516;13.508;2023-02-01T01:16:33;4.14;94.07
69823;SHT31;57119;52.516;13.508;2023-02-01T01:18:59;4.12;94.25
69823;SHT31;57119;52.516;13.508;2023-02-01T01:21:25;4.14;94.10
69823;SHT31;57119;52.516;13.508;2023-02-01T01:23:50;4.09;94.42
69823;SHT31;57119;52.516;13.508;2023-02-01T01:26:24;4.04;94.61
69823;SHT31;57119;52.516;13.508;2023-02-01T01:28:50;4.04;94.34
69823;SHT31;57119;52.516;13.508;2023-02-01T01:31:19;4.05;94.46
69823;SHT31;57119;52.516;13.508;2023-02-01T01:33:48;4.05;94.44
69823;SHT31;57119;52.516;13.508;2023-02-01T01:36:14;3.97;94.97
69823;SHT31;57119;52.516;13.508;2023-02-01T01:38:40;3.99;94.46
69823;SHT31;57119;52.516;13.508;2023-02-01T01:41:06;3.90;95.31
69823;SHT31;57119;52.516;13.508;2023-02-01T01:43:50;3.87;94.94
69823;SHT31;57119;52.516;13.508;2023-02-01T01:46:17;3.87;95.04
69823;SHT31;57119;52.516;13.508;2023-02-01T01:48:43;3.87;94.84
69823;SHT31;57119;52.516;13.508;2023-02-01T01:51:10;3.87;95.02
69823;SHT31;57119;52.516;13.508;2023-02-01T01:53:44;3.85;94.86
69823;SHT31;57119;52.516;13.508;2023-02-01T01:56:11;3.90;94.43
69823;SHT31;57119;52.516;13.508;2023-02-01T01:58:37;3.97;94.40
69823;SHT31;57119;52.516;13.508;2023-02-01T02:01:03;3.99;94.07
69823;SHT31;57119;52.516;13.508;2023-02-01T02:03:40;4.01;93.99
69823;SHT31;57119;52.516;13.508;2023-02-01T02:06:16;4.02;94.04
69823;SHT31;57119;52.516;13.508;2023-02-01T02:08:44;4.01;93.77
69823;SHT31;57119;52.516;13.508;2023-02-01T02:11:12;4.11;93.50
69823;SHT31;57119;52.516;13.508;2023-02-01T02:13:46;4.14;93.45
69823;SHT31;57119;52.516;13.508;2023-02-01T02:19:10;4.19;93.09
69823;SHT31;57119;52.516;13.508;2023-02-01T02:41:45;4.14;92.95
69823;SHT31;57119;52.516;13.508;2023-02-01T02:47:27;4.28;92.50
69823;SHT31;57119;52.516;13.508;2023-02-01T02:50:21;4.25;92.77
69823;SHT31;57119;52.516;13.508;2023-02-01T02:53:51;4.26;92.54
69823;SHT31;57119;52.516;13.508;2023-02-01T02:56:37;4.26;92.54
69823;SHT31;57119;52.516;13.508;2023-02-01T02:59:24;4.25;92.45
69823;SHT31;57119;52.516;13.508;2023-02-01T03:02:09;4.25;92.67
69823;SHT31;57119;52.516;13.508;2023-02-01T03:04:54;4.19;92.91
69823;SHT31;57119;52.516;13.508;2023-02-01T03:07:45;4.29;92.70
69823;SHT31;57119;52.516;13.508;2023-02-01T03:12:50;4.36;92.55
69823;SHT31;57119;52.516;13.508;2023-02-01T03:15:49;4.26;92.96
69823;SHT31;57119;52.516;13.508;2023-02-01T03:21:05;4.31;92.72
69823;SHT31;57119;52.516;13.508;2023-02-01T03:23:34;4.33;92.57
69823;SHT31;57119;52.516;13.508;2023-02-01T03:26:01;4.32;92.83
69823;SHT31;57119;52.516;13.508;2023-02-01T03:28:30;4.36;92.54
69823;SHT31;57119;52.516;13.508;2023-02-01T03:30:58;4.33;92.72
69823;SHT31;57119;52.516;13.508;2023-02-01T03:33:25;4.35;92.65
69823;SHT31;57119;52.516;13.508;2023-02-01T03:41:45;4.32;92.82
69823;SHT31;57119;52.516;13.508;2023-02-01T03:44:14;4.35;92.66
69823;SHT31;57119;52.516;13.508;2023-02-01T03:47:10;4.33;92.60
69823;SHT31;57119;52.516;13.508;2023-02-01T03:49:43;4.38;92.47
69823;SHT31;57119;52.516;13.508;2023-02-01T03:52:12;4.29;92.84
69823;SHT31;57119;52.516;13.508;2023-02-01T03:54:39;4.25;93.05
69823;SHT31;57119;52.516;13.508;2023-02-01T03:57:09;4.33;92.50
69823;SHT31;57119;52.516;13.508;2023-02-01T03:59:44;4.36;92.30
69823;SHT31;57119;52.516;13.508;2023-02-01T04:02:10;4.49;91.90
69823;SHT31;57119;52.516;13.508;2023-02-01T04:04:36;4.53;91.58
69823;SHT31;57119;52.516;13.508;2023-02-01T04:07:02;4.53;91.71
69823;SHT31;57119;52.516;13.508;2023-02-01T04:09:27;4.52;91.75
69823;SHT31;57119;52.516;13.508;2023-02-01T04:11:53;4.53;91.74
69823;SHT31;57119;52.516;13.508;2023-02-01T04:14:18;4.54;91.99
69823;SHT31;57119;52.516;13.508;2023-02-01T04:16:43;4.57;91.65
69823;SHT31;57119;52.516;13.508;2023-02-01T04:19:09;4.60;91.57
69823;SHT31;57119;52.516;13.508;2023-02-01T04:21:34;4.72;91.24
69823;SHT31;57119;52.516;13.508;2023-02-01T04:23:59;4.81;90.96
69823;SHT31;57119;52.516;13.508;2023-02-01T04:26:25;4.85;90.63
69823;SHT31;57119;52.516;13.508;2023-02-01T04:28:50;4.84;90.87
69823;SHT31;57119;52.516;13.508;2023-02-01T04:31:18;4.87;90.97
69823;SHT31;57119;52.516;13.508;2023-02-01T04:33:54;4.84;91.20
69823;SHT31;57119;52.516;13.508;2023-02-01T04:36:20;4.90;90.84
69823;SHT31;57119;52.516;13.508;2023-02-01T04:38:50;4.88;90.91
69823;SHT31;57119;52.516;13.508;2023-02-01T04:41:16;4.87;91.06
69823;SHT31;57119;52.516;13.508;2023-02-01T04:43:48;4.90;90.79
69823;SHT31;57119;52.516;13.508;2023-02-01T04:46:14;5.04;90.25
69823;SHT31;57119;52.516;13.508;2023-02-01T04:48:39;5.05;90.36
69823;SHT31;57119;52.516;13.508;2023-02-01T04:51:05;5.08;90.56
69823;SHT31;57119;52.516;13.508;2023-02-01T04:53:30;5.14;89.82
69823;SHT31;57119;52.516;13.508;2023-02-01T04:55:55;5.14;90.13
69823;SHT31;57119;52.516;13.508;2023-02-01T04:58:21;5.20;89.73
69823;SHT31;57119;52.516;13.508;2023-02-01T05:00:47;5.22;89.57
69823;SHT31;57119;52.516;13.508;2023-02-01T05:03:12;5.22;89.72
69823;SHT31;57119;52.516;13.508;2023-02-01T05:05:37;5.25;89.64
69823;SHT31;57119;52.516;13.508;2023-02-01T05:08:03;5.27;89.57
69823;SHT31;57119;52.516;13.508;2023-02-01T05:10:28;5.27;89.46
69823;SHT31;57119;52.516;13.508;2023-02-01T05:12:54;5.27;89.95
69823;SHT31;57119;52.516;13.508;2023-02-01T05:15:38;5.29;89.49
69823;SHT31;57119;52.516;13.508;2023-02-01T05:18:03;5.32;89.46
69823;SHT31;57119;52.516;13.508;2023-02-01T05:20:29;5.31;89.52
69823;SHT31;57119;52.516;13.508;2023-02-01T05:22:54;5.29;89.66
69823;SHT31;57119;52.516;13.508;2023-02-01T05:25:19;5.31;89.87
69823;SHT31;57119;52.516;13.508;2023-02-01T05:27:45;5.34;89.30
69823;SHT31;57119;52.516;13.508;2023-02-01T05:30:10;5.39;88.92
69823;SHT31;57119;52.516;13.508;2023-02-01T05:32:36;5.36;89.10
69823;SHT31;57119;52.516;13.508;2023-02-01T05:35:01;5.38;88.98
69823;SHT31;57119;52.516;13.508;2023-02-01T05:37:27;5.39;89.04
69823;SHT31;57119;52.516;13.508;2023-02-01T05:39:53;5.39;88.79
69823;SHT31;57119;52.516;13.508;2023-02-01T05:42:18;5.39;89.01
69823;SHT31;57119;52.516;13.508;2023-02-01T05:44:43;5.43;88.75
69823;SHT31;57119;52.516;13.508;2023-02-01T05:47:09;5.42;88.96
69823;SHT31;57119;52.516;13.508;2023-02-01T05:49:34;5.43;88.80
69823;SHT31;57119;52.516;13.508;2023-02-01T05:52:00;5.48;88.58
69823;SHT31;57119;52.516;13.508;2023-02-01T05:54:25;5.45;88.85
69823;SHT31;57119;52.516;13.508;2023-02-01T05:56:51;5.45;88.82
69823;SHT31;57119;52.516;13.508;2023-02-01T05:59:17;5.42;88.90
69823;SHT31;57119;52.516;13.508;2023-02-01T06:01:42;5.42;88.96
69823;SHT31;57119;52.516;13.508;2023-02-01T06:04:08;5.42;88.94
69823;SHT31;57119;52.516;13.508;2023-02-01T06:06:33;5.38;89.12
69823;SHT31;57119;52.516;13.508;2023-02-01T06:08:59;5.42;88.61
69823;SHT31;57119;52.516;13.508;2023-02-01T06:11:25;5.42;88.77
69823;SHT31;57119;52.516;13.508;2023-02-01T06:13:50;5.42;89.12
69823;SHT31;57119;52.516;13.508;2023-02-01T06:16:16;5.43;88.79
69823;SHT31;57119;52.516;13.508;2023-02-01T06:18:41;5.41;89.10
69823;SHT31;57119;52.516;13.508;2023-02-01T06:21:07;5.39;89.41
69823;SHT31;57119;52.516;13.508;2023-02-01T06:23:33;5.32;90.08
69823;SHT31;57119;52.516;13.508;2023-02-01T06:26:05;5.28;90.60
69823;SHT31;57119;52.516;13.508;2023-02-01T06:28:31;5.20;91.25
69823;SHT31;57119;52.516;13.508;2023-02-01T06:30:57;5.17;91.56
69823;SHT31;57119;52.516;13.508;2023-02-01T06:33:23;5.08;92.32
69823;SHT31;57119;52.516;13.508;2023-02-01T06:35:56;4.93;93.01
69823;SHT31;57119;52.516;13.508;2023-02-01T06:38:21;4.95;92.85
69823;SHT31;57119;52.516;13.508;2023-02-01T06:40:52;4.83;94.28
69823;SHT31;57119;52.516;13.508;2023-02-01T06:43:17;4.85;93.89
69823;SHT31;57119;52.516;13.508;2023-02-01T06:45:43;4.80;93.75
69823;SHT31;57119;52.516;13.508;2023-02-01T06:48:08;4.84;93.78
69823;SHT31;57119;52.516;13.508;2023-02-01T06:50:33;4.87;93.34
69823;SHT31;57119;52.516;13.508;2023-02-01T06:53:00;4.90;92.80
69823;SHT31;57119;52.516;13.508;2023-02-01T06:55:25;4.85;93.73
69823;SHT31;57119;52.516;13.508;2023-02-01T06:57:53;4.93;92.72
69823;SHT31;57119;52.516;13.508;2023-02-01T07:00:19;4.87;92.92
69823;SHT31;57119;52.516;13.508;2023-02-01T07:02:45;4.87;93.27
69823;SHT31;57119;52.516;13.508;2023-02-01T07:05:10;4.95;92.43
69823;SHT31;57119;52.516;13.508;2023-02-01T07:07:35;4.94;91.96
69823;SHT31;57119;52.516;13.508;2023-02-01T07:10:01;4.94;92.29
69823;SHT31;57119;52.516;13.508;2023-02-01T07:12:26;4.97;91.89
69823;SHT31;57119;52.516;13.508;2023-02-01T07:14:51;5.00;92.16
69823;SHT31;57119;52.516;13.508;2023-02-01T07:17:17;5.02;92.02
69823;SHT31;57119;52.516;13.508;2023-02-01T07:19:42;5.05;91.51
69823;SHT31;57119;52.516;13.508;2023-02-01T07:22:08;5.05;91.81
69823;SHT31;57119;52.516;13.508;2023-02-01T07:24:34;5.04;91.64
69823;SHT31;57119;52.516;13.508;2023-02-01T07:27:02;5.02;91.47
69823;SHT31;57119;52.516;13.508;2023-02-01T07:29:27;4.93;92.67
69823;SHT31;57119;52.516;13.508;2023-02-01T07:31:53;4.91;92.78
69823;SHT31;57119;52.516;13.508;2023-02-01T07:34:18;4.94;92.86
69823;SHT31;57119;52.516;13.508;2023-02-01T07:36:44;4.90;93.59
69823;SHT31;57119;52.516;13.508;2023-02-01T07:39:10;5.00;93.13
69823;SHT31;57119;52.516;13.508;2023-02-01T07:41:36;5.07;92.80
69823;SHT31;57119;52.516;13.508;2023-02-01T07:44:02;5.10;92.73
69823;SHT31;57119;52.516;13.508;2023-02-01T07:46:27;5.15;91.89
69823;SHT31;57119;52.516;13.508;2023-02-01T07:48:53;5.08;92.89
69823;SHT31;57119;52.516;13.508;2023-02-01T07:51:18;5.00;93.33
69823;SHT31;57119;52.516;13.508;2023-02-01T07:53:45;5.00;93.33
69823;SHT31;57119;52.516;13.508;2023-02-01T07:56:16;4.90;93.77
69823;SHT31;57119;52.516;13.508;2023-02-01T07:58:42;4.79;95.18
69823;SHT31;57119;52.516;13.508;2023-02-01T08:01:17;4.69;95.98
69823;SHT31;57119;52.516;13.508;2023-02-01T08:03:50;4.62;96.67
69823;SHT31;57119;52.516;13.508;2023-02-01T08:06:16;4.54;96.89
69823;SHT31;57119;52.516;13.508;2023-02-01T08:08:42;4.45;97.31
69823;SHT31;57119;52.516;13.508;2023-02-01T08:11:10;4.24;97.53
69823;SHT31;57119;52.516;13.508;2023-02-01T08:13:37;4.08;97.70
69823;SHT31;57119;52.516;13.508;2023-02-01T08:16:05;3.91;98.70
69823;SHT31;57119;52.516;13.508;2023-02-01T08:18:31;3.80;99.82
69823;SHT31;57119;52.516;13.508;2023-02-01T08:20:56;3.80;99.85
69823;SHT31;57119;52.516;13.508;2023-02-01T08:23:23;3.71;99.99
69823;SHT31;57119;52.516;13.508;2023-02-01T08:25:49;3.74;99.99
69823;SHT31;57119;52.516;13.508;2023-02-01T08:28:14;3.71;99.99
69823;SHT31;57119;52.516;13.508;2023-02-01T08:30:40;3.75;99.99
69823;SHT31;57119;52.516;13.508;2023-02-01T08:33:07;3.73;99.99
69823;SHT31;57119;52.516;13.508;2023-02-01T08:35:35;3.74;99.99
69823;SHT31;57119;52.516;13.508;2023-02-01T08:38:01;3.77;99.99
69823;SHT31;57119;52.516;13.508;2023-02-01T08:40:26;3.75;99.99
69823;SHT31;57119;52.516;13.508;2023-02-01T08:42:53;3.74;99.99
69823;SHT31;57119;52.516;13.508;2023-02-01T08:45:24;3.74;99.99
69823;SHT31;57119;52.516;13.508;2023-02-01T08:47:52;3.71;99.99
69823;SHT31;57119;52.516;13.508;2023-02-01T08:50:18;3.73;99.99
69823;SHT31;57119;52.516;13.508;2023-02-01T08:52:45;3.74;99.99
69823;SHT31;57119;52.516;13.508;2023-02-01T08:55:10;3.74;99.99
69823;SHT31;57119;52.516;13.508;2023-02-01T08:57:36;3.74;99.99
69823;SHT31;57119;52.516;13.508;2023-02-01T09:00:03;3.78;99.99
69823;SHT31;57119;52.516;13.508;2023-02-01T09:02:29;3.77;99.99
69823;SHT31;57119;52.516;13.508;2023-02-01T09:04:55;3.80;99.99
69823;SHT31;57119;52.516;13.508;2023-02-01T09:07:21;3.80;99.99
69823;SHT31;57119;52.516;13.508;2023-02-01T09:09:46;3.83;99.99
69823;SHT31;57119;52.516;13.508;2023-02-01T09:12:12;3.84;99.99
69823;SHT31;57119;52.516;13.508;2023-02-01T09:14:37;3.87;99.99
69823;SHT31;57119;52.516;13.508;2023-02-01T09:17:02;3.91;99.99
69823;SHT31;57119;52.516;13.508;2023-02-01T09:19:28;3.97;99.99
69823;SHT31;57119;52.516;13.508;2023-02-01T09:21:53;4.05;99.99
69823;SHT31;57119;52.516;13.508;2023-02-01T09:24:19;4.11;99.99
69823;SHT31;57119;52.516;13.508;2023-02-01T09:26:44;4.24;99.99
69823;SHT31;57119;52.516;13.508;2023-02-01T09:29:09;4.29;99.99
69823;SHT31;57119;52.516;13.508;2023-02-01T09:31:36;4.39;99.99
69823;SHT31;57119;52.516;13.508;2023-02-01T09:34:01;4.41;99.99
69823;SHT31;57119;52.516;13.508;2023-02-01T09:36:27;4.38;99.99
69823;SHT31;57119;52.516;13.508;2023-02-01T09:38:52;4.36;99.99
69823;SHT31;57119;52.516;13.508;2023-02-01T09:41:56;4.42;99.75
69823;SHT31;57119;52.516;13.508;2023-02-01T09:46:54;4.48;98.51
69823;SHT31;57119;52.516;13.508;2023-02-01T09:49:28;4.41;99.37
69823;SHT31;57119;52.516;13.508;2023-02-01T09:51:55;4.45;99.24
69823;SHT31;57119;52.516;13.508;2023-02-01T09:54:25;4.48;98.65
69823;SHT31;57119;52.516;13.508;2023-02-01T10:00:03;4.49;98.17
69823;SHT31;57119;52.516;13.508;2023-02-01T10:02:30;4.57;97.79
69823;SHT31;57119;52.516;13.508;2023-02-01T10:04:58;4.62;97.99
69823;SHT31;57119;52.516;13.508;2023-02-01T10:10:00;4.63;97.40
69823;SHT31;57119;52.516;13.508;2023-02-01T10:15:39;4.56;98.16
69823;SHT31;57119;52.516;13.508;2023-02-01T10:21:09;4.29;99.43
69823;SHT31;57119;52.516;13.508;2023-02-01T10:26:21;4.26;99.42
69823;SHT31;57119;52.516;13.508;2023-02-01T10:28:49;4.24;99.99
69823;SHT31;57119;52.516;13.508;2023-02-01T10:31:15;4.25;99.77
69823;SHT31;57119;52.516;13.508;2023-02-01T10:33:44;4.29;99.99
69823;SHT31;57119;52.516;13.508;2023-02-01T10:36:17;4.28;99.99
69823;SHT31;57119;52.516;13.508;2023-02-01T10:38:45;4.43;99.99
69823;SHT31;57119;52.516;13.508;2023-02-01T10:41:33;4.62;99.04
69823;SHT31;57119;52.516;13.508;2023-02-01T10:44:00;4.77;98.99
69823;SHT31;57119;52.516;13.508;2023-02-01T10:46:29;4.94;97.95
69823;SHT31;57119;52.516;13.508;2023-02-01T10:48:56;4.93;97.52
69823;SHT31;57119;52.516;13.508;2023-02-01T10:51:26;4.85;97.85
69823;SHT31;57119;52.516;13.508;2023-02-01T10:53:59;4.77;97.89
69823;SHT31;57119;52.516;13.508;2023-02-01T10:56:27;4.63;98.46
69823;SHT31;57119;52.516;13.508;2023-02-01T10:59:00;4.54;97.92
69823;SHT31;57119;52.516;13.508;2023-02-01T11:01:40;4.48;99.32
69823;SHT31;57119;52.516;13.508;2023-02-01T11:04:14;4.45;98.97
69823;SHT31;57119;52.516;13.508;2023-02-01T11:06:45;4.39;99.19
69823;SHT31;57119;52.516;13.508;2023-02-01T11:14:15;4.91;97.65
69823;SHT31;57119;52.516;13.508;2023-02-01T11:16:47;5.24;96.87
69823;SHT31;57119;52.516;13.508;2023-02-01T11:19:15;5.08;97.27
69823;SHT31;57119;52.516;13.508;2023-02-01T11:21:43;5.04;98.26
69823;SHT31;57119;52.516;13.508;2023-02-01T11:24:28;5.00;98.35
69823;SHT31;57119;52.516;13.508;2023-02-01T11:26:59;4.97;98.63
69823;SHT31;57119;52.516;13.508;2023-02-01T11:29:35;5.39;97.85
69823;SHT31;57119;52.516;13.508;2023-02-01T11:32:02;5.85;95.46
69823;SHT31;57119;52.516;13.508;2023-02-01T11:34:36;7.25;92.95
69823;SHT31;57119;52.516;13.508;2023-02-01T11:37:03;9.64;86.28
69823;SHT31;57119;52.516;13.508;2023-02-01T11:39:31;8.54;86.51
69823;SHT31;57119;52.516;13.508;2023-02-01T11:44:42;7.52;90.22
69823;SHT31;57119;52.516;13.508;2023-02-01T11:47:24;7.00;90.88
69823;SHT31;57119;52.516;13.508;2023-02-01T11:49:52;6.75;92.17
69823;SHT31;57119;52.516;13.508;2023-02-01T11:52:31;6.48;92.36
69823;SHT31;57119;52.516;13.508;2023-02-01T12:00:32;7.20;90.85
69823;SHT31;57119;52.516;13.508;2023-02-01T12:05:53;6.82;90.97
69823;SHT31;57119;52.516;13.508;2023-02-01T12:11:10;6.97;90.80
69823;SHT31;57119;52.516;13.508;2023-02-01T12:19:27;8.16;85.85
69823;SHT31;57119;52.516;13.508;2023-02-01T12:27:38;6.77;89.06
69823;SHT31;57119;52.516;13.508;2023-02-01T12:38:00;6.34;90.33
69823;SHT31;57119;52.516;13.508;2023-02-01T12:40:50;6.29;91.02
69823;SHT31;57119;52.516;13.508;2023-02-01T12:45:56;6.20;91.60
69823;SHT31;57119;52.516;13.508;2023-02-01T12:51:26;6.18;90.19
69823;SHT31;57119;52.516;13.508;2023-02-01T12:59:20;6.31;90.54
69823;SHT31;57119;52.516;13.508;2023-02-01T13:01:54;6.44;89.73
69823;SHT31;57119;52.516;13.508;2023-02-01T13:04:28;6.48;90.16
69823;SHT31;57119;52.516;13.508;2023-02-01T13:07:09;6.55;89.38
69823;SHT31;57119;52.516;13.508;2023-02-01T13:09:43;6.59;89.04
69823;SHT31;57119;52.516;13.508;2023-02-01T13:12:15;6.66;88.66
69823;SHT31;57119;52.516;13.508;2023-02-01T13:14:46;6.66;88.84
69823;SHT31;57119;52.516;13.508;2023-02-01T13:17:19;6.77;88.53
69823;SHT31;57119;52.516;13.508;2023-02-01T13:19:56;6.69;88.69
69823;SHT31;57119;52.516;13.508;2023-02-01T13:22:54;6.56;89.12
69823;SHT31;57119;52.516;13.508;2023-02-01T13:25:52;6.03;89.59
69823;SHT31;57119;52.516;13.508;2023-02-01T13:31:25;5.28;91.72
69823;SHT31;57119;52.516;13.508;2023-02-01T13:39:45;5.80;91.19
69823;SHT31;57119;52.516;13.508;2023-02-01T13:42:21;6.01;91.08
69823;SHT31;57119;52.516;13.508;2023-02-01T13:47:39;6.34;89.40
69823;SHT31;57119;52.516;13.508;2023-02-01T13:50:26;6.44;88.35
69823;SHT31;57119;52.516;13.508;2023-02-01T13:53:16;6.49;87.95
69823;SHT31;57119;52.516;13.508;2023-02-01T13:55:44;6.53;88.00
69823;SHT31;57119;52.516;13.508;2023-02-01T14:11:50;6.52;88.29
69823;SHT31;57119;52.516;13.508;2023-02-01T14:16:42;6.48;88.37
69823;SHT31;57119;52.516;13.508;2023-02-01T14:19:17;6.48;88.31
69823;SHT31;57119;52.516;13.508;2023-02-01T14:21:50;6.46;89.42
69823;SHT31;57119;52.516;13.508;2023-02-01T14:24:29;6.07;91.33
69823;SHT31;57119;52.516;13.508;2023-02-01T14:27:18;5.80;93.17
69823;SHT31;57119;52.516;13.508;2023-02-01T14:29:56;5.74;93.45
69823;SHT31;57119;52.516;13.508;2023-02-01T14:32:39;5.74;94.02
69823;SHT31;57119;52.516;13.508;2023-02-01T14:35:12;5.73;93.70
69823;SHT31;57119;52.516;13.508;2023-02-01T14:37:41;5.77;93.62
69823;SHT31;57119;52.516;13.508;2023-02-01T14:42:53;5.94;93.40
69823;SHT31;57119;52.516;13.508;2023-02-01T14:47:46;5.98;92.89
69823;SHT31;57119;52.516;13.508;2023-02-01T14:58:15;6.08;91.78
69823;SHT31;57119;52.516;13.508;2023-02-01T15:00:51;6.16;91.14
69823;SHT31;57119;52.516;13.508;2023-02-01T15:03:30;6.11;91.29
69823;SHT31;57119;52.516;13.508;2023-02-01T15:05:58;6.16;90.65
69823;SHT31;57119;52.516;13.508;2023-02-01T15:08:32;6.20;90.22
69823;SHT31;57119;52.516;13.508;2023-02-01T15:11:01;6.21;89.35
69823;SHT31;57119;52.516;13.508;2023-02-01T15:13:28;6.24;89.43
69823;SHT31;57119;52.516;13.508;2023-02-01T15:16:14;6.28;89.14
69823;SHT31;57119;52.516;13.508;2023-02-01T15:18:41;6.10;90.32
69823;SHT31;57119;52.516;13.508;2023-02-01T15:21:16;5.60;93.29
69823;SHT31;57119;52.516;13.508;2023-02-01T15:23:41;5.35;94.66
69823;SHT31;57119;52.516;13.508;2023-02-01T15:26:07;5.17;95.61
69823;SHT31;57119;52.516;13.508;2023-02-01T15:28:32;5.08;95.36
69823;SHT31;57119;52.516;13.508;2023-02-01T15:31:07;4.95;94.94
69823;SHT31;57119;52.516;13.508;2023-02-01T15:33:35;4.77;95.92
69823;SHT31;57119;52.516;13.508;2023-02-01T15:36:17;4.69;96.83
69823;SHT31;57119;52.516;13.508;2023-02-01T15:38:44;4.62;97.38
69823;SHT31;57119;52.516;13.508;2023-02-01T15:49:02;4.28;98.40
69823;SHT31;57119;52.516;13.508;2023-02-01T15:51:29;4.12;98.68
69823;SHT31;57119;52.516;13.508;2023-02-01T15:54:02;3.95;99.96
69823;SHT31;57119;52.516;13.508;2023-02-01T15:56:33;3.85;99.99
69823;SHT31;57119;52.516;13.508;2023-02-01T15:59:02;3.77;99.99
69823;SHT31;57119;52.516;13.508;2023-02-01T16:01:28;3.75;99.99
69823;SHT31;57119;52.516;13.508;2023-02-01T16:04:03;3.64;99.99
69823;SHT31;57119;52.516;13.508;2023-02-01T16:06:31;3.47;99.99
69823;SHT31;57119;52.516;13.508;2023-02-01T16:11:32;2.99;99.99
69823;SHT31;57119;52.516;13.508;2023-02-01T16:13:59;2.71;99.99
69823;SHT31;57119;52.516;13.508;2023-02-01T16:16:25;2.68;99.99
69823;SHT31;57119;52.516;13.508;2023-02-01T16:18:51;2.64;99.99
69823;SHT31;57119;52.516;13.508;2023-02-01T16:21:16;2.60;99.99
69823;SHT31;57119;52.516;13.508;2023-02-01T16:23:42;2.62;99.99
69823;SHT31;57119;52.516;13.508;2023-02-01T16:26:07;2.64;99.99
69823;SHT31;57119;52.516;13.508;2023-02-01T16:28:33;2.62;99.99
69823;SHT31;57119;52.516;13.508;2023-02-01T16:31:00;2.62;99.99
69823;SHT31;57119;52.516;13.508;2023-02-01T16:33:26;2.68;99.99
69823;SHT31;57119;52.516;13.508;2023-02-01T16:35:52;2.70;99.99
69823;SHT31;57119;52.516;13.508;2023-02-01T16:38:19;2.74;99.99
69823;SHT31;57119;52.516;13.508;2023-02-01T16:40:49;2.78;99.99
69823;SHT31;57119;52.516;13.508;2023-02-01T16:43:16;2.81;99.99
69823;SHT31;57119;52.516;13.508;2023-02-01T16:45:44;2.84;99.99
69823;SHT31;57119;52.516;13.508;2023-02-01T16:48:20;2.88;99.99
69823;SHT31;57119;52.516;13.508;2023-02-01T16:50:51;2.87;99.99
69823;SHT31;57119;52.516;13.508;2023-02-01T16:53:18;2.91;99.99
69823;SHT31;57119;52.516;13.508;2023-02-01T16:55:44;2.94;99.99
69823;SHT31;57119;52.516;13.508;2023-02-01T16:58:12;2.89;99.99
69823;SHT31;57119;52.516;13.508;2023-02-01T17:00:37;2.97;99.99
69823;SHT31;57119;52.516;13.508;2023-02-01T17:03:04;2.92;99.99
69823;SHT31;57119;52.516;13.508;2023-02-01T17:05:31;3.01;99.99
69823;SHT31;57119;52.516;13.508;2023-02-01T17:08:02;3.02;99.99
69823;SHT31;57119;52.516;13.508;2023-02-01T17:10:29;3.05;99.99
69823;SHT31;57119;52.516;13.508;2023-02-01T17:12:55;3.09;99.99
69823;SHT31;57119;52.516;13.508;2023-02-01T17:15:21;3.15;99.99
69823;SHT31;57119;52.516;13.508;2023-02-01T17:17:47;3.18;99.99
69823;SHT31;57119;52.516;13.508;2023-02-01T17:20:21;3.19;99.99
69823;SHT31;57119;52.516;13.508;2023-02-01T17:22:47;3.22;99.99
69823;SHT31;57119;52.516;13.508;2023-02-01T17:25:15;3.23;99.99
69823;SHT31;57119;52.516;13.508;2023-02-01T17:27:41;3.25;99.99
69823;SHT31;57119;52.516;13.508;2023-02-01T17:30:07;3.26;99.99
69823;SHT31;57119;52.516;13.508;2023-02-01T17:32:35;3.25;99.99
69823;SHT31;57119;52.516;13.508;2023-02-01T17:35:00;3.30;99.99
69823;SHT31;57119;52.516;13.508;2023-02-01T17:37:32;3.35;99.99
69823;SHT31;57119;52.516;13.508;2023-02-01T17:39:59;3.36;99.99
69823;SHT31;57119;52.516;13.508;2023-02-01T17:42:26;3.39;99.99
69823;SHT31;57119;52.516;13.508;2023-02-01T17:44:55;3.43;99.99
69823;SHT31;57119;52.516;13.508;2023-02-01T17:47:21;3.49;99.99
69823;SHT31;57119;52.516;13.508;2023-02-01T17:49:47;3.52;99.99
69823;SHT31;57119;52.516;13.508;2023-02-01T17:52:17;3.56;99.99
69823;SHT31;57119;52.516;13.508;2023-02-01T17:54:43;3.60;99.99
69823;SHT31;57119;52.516;13.508;2023-02-01T17:57:12;3.62;99.89
69823;SHT31;57119;52.516;13.508;2023-02-01T17:59:37;3.63;99.99
69823;SHT31;57119;52.516;13.508;2023-02-01T18:02:03;3.69;99.99
69823;SHT31;57119;52.516;13.508;2023-02-01T18:04:28;3.71;99.55
69823;SHT31;57119;52.516;13.508;2023-02-01T18:06:54;3.74;99.79
69823;SHT31;57119;52.516;13.508;2023-02-01T18:09:19;3.73;99.90
69823;SHT31;57119;52.516;13.508;2023-02-01T18:11:44;3.78;99.63
69823;SHT31;57119;52.516;13.508;2023-02-01T18:14:11;3.84;99.22
69823;SHT31;57119;52.516;13.508;2023-02-01T18:16:39;3.90;98.59